createdAt,value
2023-03-28T00:01:12.417Z,99418.00
2023-03-28T00:03:42.252Z,99412.66
2023-03-28T00:06:11.831Z,99416.63
2023-03-28T00:08:40.178Z,99421.44
2023-03-28T00:11:29.633Z,99427.38
2023-03-28T00:14:00.813Z,99431.81
2023-03-28T00:16:34.329Z,99434.66
2023-03-28T00:19:11.658Z,99429.41
2023-03-28T00:21:41.420Z,99436.06
2023-03-28T00:24:13.972Z,99433.19
2023-03-28T00:26:42.388Z,99437.00
2023-03-28T00:29:12.068Z,99434.66
2023-03-28T00:31:39.213Z,99434.53
2023-03-28T00:34:07.046Z,99433.47
2023-03-28T00:36:34.620Z,99443.63
2023-03-28T00:39:06.790Z,99448.34
2023-03-28T00:41:39.761Z,99451.97
2023-03-28T00:44:40.360Z,99450.47
2023-03-28T00:47:20.641Z,99444.53
2023-03-28T00:49:49.781Z,99442.78
2023-03-28T00:52:17.913Z,99455.94
2023-03-28T00:54:46.192Z,99453.47
2023-03-28T00:57:16.443Z,99447.19
2023-03-28T00:59:44.028Z,99449.72
2023-03-28T01:02:11.860Z,99442.72
2023-03-28T01:04:57.705Z,99443.09
2023-03-28T01:07:27.224Z,99438.94
2023-03-28T01:09:54.692Z,99444.13
2023-03-28T01:12:22.820Z,99435.63
2023-03-28T01:14:50.357Z,99442.81
2023-03-28T01:17:17.386Z,99445.97
2023-03-28T01:20:03.957Z,99449.13
2023-03-28T01:22:56.971Z,99449.34
2023-03-28T01:25:49.921Z,99455.22
2023-03-28T01:28:29.065Z,99459.09
2023-03-28T01:31:26.454Z,99455.19
2023-03-28T01:34:52.006Z,99456.25
2023-03-28T01:37:46.939Z,99453.41
2023-03-28T01:40:36.220Z,99451.16
2023-03-28T01:43:22.795Z,99450.31
2023-03-28T01:46:13.984Z,99452.66
2023-03-28T01:48:57.976Z,99445.22
2023-03-28T01:51:28.725Z,99455.16
2023-03-28T01:54:19.546Z,99453.19
2023-03-28T01:56:51.453Z,99451.31
2023-03-28T01:59:42.955Z,99451.88
2023-03-28T02:02:39.158Z,99452.06
2023-03-28T02:05:32.916Z,99456.72
2023-03-28T02:08:02.789Z,99453.56
2023-03-28T02:10:42.319Z,99456.78
2023-03-28T02:13:35.978Z,99451.06
2023-03-28T02:16:23.967Z,99448.56
2023-03-28T02:19:24.958Z,99446.44
2023-03-28T02:22:20.224Z,99449.13
2023-03-28T02:25:16.521Z,99446.06
2023-03-28T02:28:01.235Z,99461.47
2023-03-28T02:30:37.418Z,99453.75
2023-03-28T02:33:08.556Z,99453.41
2023-03-28T02:35:58.117Z,99451.38
2023-03-28T02:38:40.375Z,99436.34
2023-03-28T02:41:13.138Z,99438.50
2023-03-28T02:43:41.320Z,99435.16
2023-03-28T02:46:29.159Z,99433.28
2023-03-28T02:48:55.652Z,99435.47
2023-03-28T02:51:30.088Z,99430.81
2023-03-28T02:54:08.638Z,99430.19
2023-03-28T02:56:46.038Z,99435.56
2023-03-28T02:59:40.823Z,99442.88
2023-03-28T03:02:08.314Z,99436.19
2023-03-28T03:04:34.814Z,99427.00
2023-03-28T03:07:02.500Z,99434.81
2023-03-28T03:09:31.123Z,99433.50
2023-03-28T03:11:57.554Z,99439.00
2023-03-28T03:14:24.169Z,99427.72
2023-03-28T03:16:52.819Z,99433.59
2023-03-28T03:19:19.408Z,99435.19
2023-03-28T03:21:46.537Z,99434.22
2023-03-28T03:24:14.273Z,99436.75
2023-03-28T03:26:42.912Z,99441.03
2023-03-28T03:29:15.202Z,99433.06
2023-03-28T03:31:41.714Z,99437.84
2023-03-28T03:34:24.231Z,99431.56
2023-03-28T03:36:54.917Z,99428.06
2023-03-28T03:39:22.281Z,99429.41
2023-03-28T03:41:48.855Z,99431.19
2023-03-28T03:44:15.307Z,99437.94
2023-03-28T03:46:41.927Z,99440.41
2023-03-28T03:49:09.734Z,99445.19
2023-03-28T03:51:36.781Z,99440.97
2023-03-28T03:54:03.288Z,99441.50
2023-03-28T03:56:34.627Z,99448.78
2023-03-28T03:59:01.131Z,99450.06
2023-03-28T04:01:32.421Z,99458.84
2023-03-28T04:04:16.584Z,99459.63
2023-03-28T04:07:02.346Z,99448.44
2023-03-28T04:09:28.916Z,99452.94
2023-03-28T04:11:59.534Z,99446.78
2023-03-28T04:14:27.998Z,99452.38
2023-03-28T04:17:16.084Z,99456.34
2023-03-28T04:19:43.720Z,99452.53
2023-03-28T04:22:12.709Z,99461.22
2023-03-28T04:24:45.774Z,99463.38
2023-03-28T04:27:18.187Z,99470.47
2023-03-28T04:29:46.904Z,99470.78
2023-03-28T04:32:35.840Z,99474.03
2023-03-28T04:35:08.108Z,99477.13
2023-03-28T04:37:37.692Z,99481.31
2023-03-28T04:40:11.955Z,99476.97
2023-03-28T04:42:47.055Z,99482.47
2023-03-28T04:45:36.589Z,99482.81
2023-03-28T04:48:12.735Z,99475.97
2023-03-28T04:50:39.824Z,99481.06
2023-03-28T04:53:06.358Z,99481.47
2023-03-28T04:55:33.063Z,99484.78
2023-03-28T04:58:06.167Z,99485.53
2023-03-28T05:00:33.027Z,99491.38
2023-03-28T05:03:05.034Z,99495.38
2023-03-28T05:05:41.606Z,99506.53
2023-03-28T05:08:12.999Z,99503.94
2023-03-28T05:10:40.074Z,99507.53
2023-03-28T05:13:08.401Z,99503.28
2023-03-28T05:15:43.701Z,99502.78
2023-03-28T05:18:26.564Z,99510.19
2023-03-28T05:20:53.024Z,99509.84
2023-03-28T05:23:19.555Z,99513.44
2023-03-28T05:25:51.792Z,99514.38
2023-03-28T05:28:18.983Z,99505.97
2023-03-28T05:30:49.748Z,99509.53
2023-03-28T05:33:16.546Z,99505.03
2023-03-28T05:35:44.260Z,99519.53
2023-03-28T05:38:10.775Z,99518.09
2023-03-28T05:40:37.654Z,99517.00
2023-03-28T05:43:04.628Z,99519.09
2023-03-28T05:45:32.542Z,99518.09
2023-03-28T05:48:19.827Z,99520.31
2023-03-28T05:50:51.016Z,99520.56
2023-03-28T05:53:17.736Z,99518.88
2023-03-28T05:55:44.426Z,99521.50
2023-03-28T05:58:11.047Z,99517.66
2023-03-28T06:00:39.935Z,99511.94
2023-03-28T06:03:07.791Z,99520.00
2023-03-28T06:05:37.521Z,99510.31
2023-03-28T06:08:13.158Z,99512.47
2023-03-28T06:10:39.679Z,99513.09
2023-03-28T06:13:16.327Z,99514.25
2023-03-28T06:15:45.542Z,99512.91
2023-03-28T06:18:12.115Z,99505.94
2023-03-28T06:20:44.176Z,99502.88
2023-03-28T06:23:11.016Z,99513.34
2023-03-28T06:25:37.719Z,99528.00
2023-03-28T06:28:04.471Z,99522.22
2023-03-28T06:30:32.928Z,99522.00
2023-03-28T06:33:00.275Z,99521.38
2023-03-28T06:35:29.558Z,99528.09
2023-03-28T06:37:56.335Z,99530.28
2023-03-28T06:40:26.497Z,99531.13
2023-03-28T06:42:53.437Z,99534.41
2023-03-28T06:45:36.732Z,99537.41
2023-03-28T06:48:07.574Z,99534.81
2023-03-28T06:50:54.308Z,99535.50
2023-03-28T06:53:22.927Z,99528.38
2023-03-28T06:55:51.240Z,99530.50
2023-03-28T06:58:18.464Z,99524.13
2023-03-28T07:00:52.776Z,99539.25
2023-03-28T07:03:36.867Z,99538.09
2023-03-28T07:06:06.672Z,99541.47
2023-03-28T07:08:34.056Z,99527.97
2023-03-28T07:11:00.947Z,99528.22
2023-03-28T07:13:28.470Z,99528.25
2023-03-28T07:16:05.186Z,99536.88
2023-03-28T07:18:32.409Z,99535.97
2023-03-28T07:21:03.906Z,99537.69
2023-03-28T07:23:31.776Z,99535.34
2023-03-28T07:25:58.500Z,99532.72
2023-03-28T07:28:25.087Z,99526.59
2023-03-28T07:30:54.223Z,99526.84
2023-03-28T07:33:27.127Z,99525.69
2023-03-28T07:36:11.985Z,99530.50
2023-03-28T07:38:39.058Z,99524.97
2023-03-28T07:41:06.176Z,99525.44
2023-03-28T07:43:32.716Z,99529.19
2023-03-28T07:46:03.214Z,99539.97
2023-03-28T07:48:30.576Z,99536.09
2023-03-28T07:50:57.277Z,99536.91
2023-03-28T07:53:23.847Z,99537.97
2023-03-28T07:55:54.837Z,99550.31
2023-03-28T07:58:25.295Z,99556.41
2023-03-28T08:00:54.680Z,99550.09
2023-03-28T08:03:30.554Z,99556.63
2023-03-28T08:06:02.762Z,99549.00
2023-03-28T08:08:30.893Z,99556.81
2023-03-28T08:11:13.379Z,99557.97
2023-03-28T08:13:40.243Z,99555.97
2023-03-28T08:16:16.235Z,99558.09
2023-03-28T08:18:42.790Z,99553.25
2023-03-28T08:21:09.962Z,99554.28
2023-03-28T08:23:36.785Z,99550.75
2023-03-28T08:26:22.594Z,99554.75
2023-03-28T08:28:54.784Z,99553.28
2023-03-28T08:31:26.641Z,99550.44
2023-03-28T08:33:56.832Z,99548.00
2023-03-28T08:36:28.608Z,99558.69
2023-03-28T08:39:00.463Z,99545.59
2023-03-28T08:42:06.625Z,99547.72
2023-03-28T08:44:48.459Z,99545.03
2023-03-28T08:47:28.818Z,99545.78
2023-03-28T08:50:01.989Z,99544.84
2023-03-28T08:52:30.444Z,99550.06
2023-03-28T08:55:18.247Z,99548.50
2023-03-28T08:57:45.619Z,99553.34
2023-03-28T09:00:48.544Z,99554.03
2023-03-28T09:03:18.849Z,99552.13
2023-03-28T09:06:11.433Z,99549.81
2023-03-28T09:09:01.726Z,99553.44
2023-03-28T09:11:54.707Z,99547.91
2023-03-28T09:15:00.282Z,99546.66
2023-03-28T09:17:47.852Z,99554.09
2023-03-28T09:20:33.204Z,99537.84
2023-03-28T09:23:48.843Z,99538.19
2023-03-28T09:26:57.071Z,99539.84
2023-03-28T09:29:26.131Z,99541.59
2023-03-28T09:32:00.025Z,99532.13
2023-03-28T09:34:33.603Z,99532.09
2023-03-28T09:37:13.534Z,99538.75
2023-03-28T09:39:49.374Z,99532.88
2023-03-28T09:42:22.948Z,99532.63
2023-03-28T09:45:18.267Z,99527.44
2023-03-28T09:48:19.779Z,99533.00
2023-03-28T09:50:47.364Z,99521.41
2023-03-28T09:53:21.894Z,99520.41
2023-03-28T09:55:57.945Z,99527.69
2023-03-28T09:58:57.393Z,99523.59
2023-03-28T10:01:43.613Z,99518.41
2023-03-28T10:04:15.460Z,99514.22
2023-03-28T10:07:09.699Z,99518.03
2023-03-28T10:09:51.461Z,99511.09
2023-03-28T10:12:23.037Z,99517.50
2023-03-28T10:14:50.784Z,99515.41
2023-03-28T10:17:37.264Z,99512.88
2023-03-28T10:20:21.718Z,99507.59
2023-03-28T10:22:54.773Z,99507.59
2023-03-28T10:25:29.550Z,99503.78
2023-03-28T10:27:56.446Z,99495.28
2023-03-28T10:30:26.175Z,99494.16
2023-03-28T10:33:17.518Z,99491.28
2023-03-28T10:36:07.674Z,99482.22
2023-03-28T10:38:45.835Z,99492.81
2023-03-28T10:41:33.036Z,99487.00
2023-03-28T10:44:19.285Z,99486.50
2023-03-28T10:47:16.156Z,99482.06
2023-03-28T10:49:51.597Z,99478.69
2023-03-28T10:52:48.577Z,99475.09
2023-03-28T10:55:31.614Z,99474.47
2023-03-28T10:58:32.989Z,99472.09
2023-03-28T11:01:24.840Z,99470.97
2023-03-28T11:04:26.365Z,99467.66
2023-03-28T11:07:04.308Z,99467.06
2023-03-28T11:10:24.143Z,99462.22
2023-03-28T11:13:23.827Z,99461.91
2023-03-28T11:16:06.852Z,99453.72
2023-03-28T11:18:57.881Z,99450.41
2023-03-28T11:21:52.176Z,99446.31
2023-03-28T11:24:28.413Z,99442.75
2023-03-28T11:27:40.696Z,99429.06
2023-03-28T11:30:20.903Z,99424.94
2023-03-28T11:33:24.664Z,99413.09
2023-03-28T11:36:07.274Z,99412.44
2023-03-28T11:38:39.050Z,99414.31
2023-03-28T11:41:11.523Z,99402.19
2023-03-28T11:44:02.346Z,99400.41
2023-03-28T11:46:40.737Z,99392.19
2023-03-28T11:49:36.466Z,99384.72
2023-03-28T11:52:23.895Z,99382.41
2023-03-28T11:55:04.532Z,99390.28
2023-03-28T11:57:54.485Z,99395.91
2023-03-28T12:00:33.736Z,99381.03
2023-03-28T12:03:13.714Z,99386.88
2023-03-28T12:06:17.313Z,99371.09
2023-03-28T12:08:50.963Z,99367.69
2023-03-28T12:11:24.207Z,99362.22
2023-03-28T12:14:12.637Z,99362.53
2023-03-28T12:16:49.634Z,99347.69
2023-03-28T12:19:33.790Z,99350.44
2023-03-28T12:22:18.914Z,99346.88
2023-03-28T12:24:57.226Z,99338.31
2023-03-28T12:28:00.136Z,99331.47
2023-03-28T12:30:45.564Z,99331.97
2023-03-28T12:33:37.343Z,99343.84
2023-03-28T12:36:35.849Z,99332.63
2023-03-28T12:39:42.232Z,99315.28
2023-03-28T12:42:21.320Z,99326.28
2023-03-28T12:44:58.244Z,99320.56
2023-03-28T12:47:32.458Z,99312.50
2023-03-28T12:50:04.928Z,99307.28
2023-03-28T12:52:34.644Z,99302.78
2023-03-28T12:55:27.542Z,99297.09
2023-03-28T12:58:22.074Z,99293.72
2023-03-28T13:01:09.453Z,99297.50
2023-03-28T13:03:48.228Z,99291.69
2023-03-28T13:06:40.836Z,99286.38
2023-03-28T13:09:41.718Z,99278.91
2023-03-28T13:12:29.869Z,99283.63
2023-03-28T13:15:22.285Z,99269.47
2023-03-28T13:18:17.863Z,99257.06
2023-03-28T13:20:46.975Z,99268.00
2023-03-28T13:23:15.520Z,99262.91
2023-03-28T13:25:44.574Z,99259.44
2023-03-28T13:28:11.162Z,99253.94
2023-03-28T13:30:43.160Z,99247.78
2023-03-28T13:33:24.751Z,99239.47
2023-03-28T13:36:00.333Z,99232.44
2023-03-28T13:38:26.979Z,99232.91
2023-03-28T13:40:56.307Z,99230.75
2023-03-28T13:43:35.950Z,99234.19
2023-03-28T13:46:12.526Z,99230.81
2023-03-28T13:49:00.127Z,99224.00
2023-03-28T13:51:31.267Z,99217.78
2023-03-28T13:53:57.783Z,99217.69
2023-03-28T13:56:27.599Z,99220.25
2023-03-28T13:58:56.045Z,99211.06
2023-03-28T14:01:34.723Z,99200.38
2023-03-28T14:04:01.210Z,99189.94
2023-03-28T14:06:29.916Z,99181.69
2023-03-28T14:09:01.130Z,99192.63
2023-03-28T14:11:37.569Z,99184.53
2023-03-28T14:14:33.336Z,99180.63
2023-03-28T14:17:06.290Z,99182.16
2023-03-28T14:19:43.146Z,99177.69
2023-03-28T14:22:23.217Z,99176.31
2023-03-28T14:24:52.347Z,99170.31
2023-03-28T14:27:41.114Z,99171.50
2023-03-28T14:30:37.128Z,99156.13
2023-03-28T14:33:13.483Z,99155.66
2023-03-28T14:35:46.439Z,99147.28
2023-03-28T14:38:14.808Z,99142.94
2023-03-28T14:40:45.682Z,99133.59
2023-03-28T14:43:13.581Z,99131.31
2023-03-28T14:45:47.725Z,99130.38
2023-03-28T14:48:19.090Z,99129.88
2023-03-28T14:50:47.841Z,99118.03
2023-03-28T14:53:21.933Z,99116.88
2023-03-28T14:55:50.995Z,99114.72
2023-03-28T14:58:19.078Z,99116.22
2023-03-28T15:00:48.241Z,99116.97
2023-03-28T15:03:18.323Z,99108.91
2023-03-28T15:05:48.613Z,99115.50
2023-03-28T15:08:30.831Z,99117.78
2023-03-28T15:11:03.258Z,99110.97
2023-03-28T15:13:38.816Z,99104.91
2023-03-28T15:16:08.041Z,99097.69
2023-03-28T15:18:44.345Z,99086.97
2023-03-28T15:21:11.673Z,99088.47
2023-03-28T15:23:49.129Z,99087.56
2023-03-28T15:26:25.468Z,99090.56
2023-03-28T15:28:54.828Z,99073.06
2023-03-28T15:31:22.229Z,99073.88
2023-03-28T15:33:50.576Z,99078.91
2023-03-28T15:36:20.100Z,99081.28
2023-03-28T15:38:51.231Z,99079.38
2023-03-28T15:41:39.645Z,99076.53
2023-03-28T15:44:30.314Z,99060.94
2023-03-28T15:47:23.721Z,99051.09
2023-03-28T15:49:50.971Z,99053.91
2023-03-28T15:52:20.208Z,99051.28
2023-03-28T15:54:52.064Z,99036.44
2023-03-28T15:57:23.158Z,99038.78
2023-03-28T15:59:54.916Z,99039.44
2023-03-28T16:02:24.099Z,99044.78
2023-03-28T16:05:09.991Z,99039.16
2023-03-28T16:07:46.371Z,99038.41
2023-03-28T16:10:16.622Z,99047.72
2023-03-28T16:13:03.152Z,99031.06
2023-03-28T16:15:51.140Z,99029.69
2023-03-28T16:18:33.357Z,99020.91
2023-03-28T16:21:02.910Z,99024.88
2023-03-28T16:23:29.347Z,99026.47
2023-03-28T16:25:55.853Z,99026.03
2023-03-28T16:28:22.332Z,99018.25
2023-03-28T16:30:49.051Z,99014.16
2023-03-28T16:33:16.855Z,99013.88
2023-03-28T16:35:43.417Z,99008.84
2023-03-28T16:38:11.534Z,99006.19
2023-03-28T16:40:38.583Z,99002.38
2023-03-28T16:43:05.407Z,99003.84
2023-03-28T16:45:31.916Z,98992.22
2023-03-28T16:47:58.560Z,98984.91
2023-03-28T16:50:25.086Z,98983.13
2023-03-28T16:52:51.516Z,98980.31
2023-03-28T16:55:18.837Z,98971.28
2023-03-28T16:57:46.295Z,98976.72
2023-03-28T17:00:17.742Z,98967.19
2023-03-28T17:02:48.124Z,98967.28
2023-03-28T17:05:16.233Z,98954.56
2023-03-28T17:07:42.664Z,98955.25
2023-03-28T17:10:10.140Z,98958.59
2023-03-28T17:12:36.899Z,98954.28
2023-03-28T17:15:03.833Z,98956.97
2023-03-28T17:17:30.688Z,98957.00
2023-03-28T17:19:57.138Z,98948.81
2023-03-28T17:22:23.617Z,98951.41
2023-03-28T17:24:50.823Z,98954.91
2023-03-28T17:27:17.529Z,98959.38
2023-03-28T17:29:44.003Z,98954.13
2023-03-28T17:32:11.387Z,98955.06
2023-03-28T17:34:38.007Z,98956.38
2023-03-28T17:37:04.560Z,98960.00
2023-03-28T17:39:31.746Z,98955.28
2023-03-28T17:41:58.326Z,98954.50
2023-03-28T17:44:24.871Z,98953.81
2023-03-28T17:46:51.909Z,98948.75
2023-03-28T17:49:18.689Z,98947.44
2023-03-28T17:51:45.480Z,98942.34
2023-03-28T17:54:12.103Z,98953.69
2023-03-28T17:56:39.678Z,98932.50
2023-03-28T17:59:06.764Z,98939.06
2023-03-28T18:01:33.713Z,98945.66
2023-03-28T18:04:00.498Z,98952.53
2023-03-28T18:06:45.705Z,98956.00
2023-03-28T18:09:12.243Z,98959.75
2023-03-28T18:11:39.226Z,98962.88
2023-03-28T18:14:08.343Z,98960.41
2023-03-28T18:16:35.680Z,98962.06
2023-03-28T18:19:02.237Z,98960.59
2023-03-28T18:21:28.860Z,98960.78
2023-03-28T18:23:55.394Z,98973.44
2023-03-28T18:26:25.500Z,98984.25
2023-03-28T18:28:52.091Z,98974.72
2023-03-28T18:31:20.156Z,98967.00
2023-03-28T18:33:46.860Z,98964.38
2023-03-28T18:36:14.126Z,98967.16
2023-03-28T18:38:43.013Z,98985.06
2023-03-28T18:41:12.292Z,98981.63
2023-03-28T18:43:41.336Z,98981.81
2023-03-28T18:46:08.654Z,98968.97
2023-03-28T18:48:36.035Z,98979.31
2023-03-28T18:51:11.643Z,98974.88
2023-03-28T18:53:38.267Z,98978.34
2023-03-28T18:56:05.996Z,98970.78
2023-03-28T18:58:34.016Z,98975.22
2023-03-28T19:01:03.438Z,98979.50
2023-03-28T19:03:34.492Z,98968.16
2023-03-28T19:06:02.814Z,98973.25
2023-03-28T19:08:30.657Z,98969.97
2023-03-28T19:11:00.063Z,98971.78
2023-03-28T19:13:28.630Z,98974.41
2023-03-28T19:16:00.380Z,98973.66
2023-03-28T19:18:27.368Z,98970.81
2023-03-28T19:20:55.533Z,98974.09
2023-03-28T19:23:23.133Z,98980.47
2023-03-28T19:25:49.727Z,98977.00
2023-03-28T19:28:17.546Z,98979.38
2023-03-28T19:30:44.450Z,99002.31
2023-03-28T19:33:11.332Z,99010.88
2023-03-28T19:35:39.372Z,99005.53
2023-03-28T19:38:05.983Z,98997.03
2023-03-28T19:40:32.567Z,98971.09
2023-03-28T19:42:59.076Z,98929.56
2023-03-28T19:45:26.097Z,98895.22
2023-03-28T19:47:52.599Z,98863.09
2023-03-28T19:50:19.232Z,98860.00
2023-03-28T19:52:45.726Z,98841.53
2023-03-28T19:55:12.191Z,98826.22
2023-03-28T19:57:38.801Z,98808.28
2023-03-28T20:00:06.964Z,98821.22
2023-03-28T20:02:39.064Z,98838.91
2023-03-28T20:05:06.113Z,98862.84
2023-03-28T20:07:32.531Z,98872.88
2023-03-28T20:09:59.701Z,98888.44
2023-03-28T20:12:26.170Z,98900.03
2023-03-28T20:14:54.412Z,98903.31
2023-03-28T20:17:22.091Z,98911.09
2023-03-28T20:19:51.466Z,98917.03
2023-03-28T20:22:19.781Z,98902.44
2023-03-28T20:24:48.640Z,98913.28
2023-03-28T20:27:16.354Z,98907.91
2023-03-28T20:29:42.833Z,98900.78
2023-03-28T20:32:10.407Z,98902.00
2023-03-28T20:34:37.110Z,98914.56
2023-03-28T20:37:03.552Z,98920.84
2023-03-28T20:39:34.114Z,98938.84
2023-03-28T20:42:05.454Z,98941.09
2023-03-28T20:44:37.887Z,98942.13
2023-03-28T20:47:09.009Z,98931.63
2023-03-28T20:49:38.115Z,98930.31
2023-03-28T20:52:06.507Z,98919.00
2023-03-28T20:54:33.163Z,98912.22
2023-03-28T20:56:59.641Z,98905.03
2023-03-28T20:59:27.267Z,98899.34
2023-03-28T21:01:54.584Z,98868.41
2023-03-28T21:04:22.117Z,98861.31
2023-03-28T21:06:49.944Z,98840.25
2023-03-28T21:09:17.761Z,98829.41
2023-03-28T21:11:44.663Z,98827.34
2023-03-28T21:14:13.480Z,98834.59
2023-03-28T21:16:40.420Z,98840.59
2023-03-28T21:19:06.899Z,98838.44
2023-03-28T21:21:34.014Z,98838.94
2023-03-28T21:24:01.736Z,98839.38
2023-03-28T21:26:29.041Z,98863.63
2023-03-28T21:28:55.862Z,98872.69
2023-03-28T21:31:25.754Z,98885.66
2023-03-28T21:33:57.114Z,98904.19
2023-03-28T21:36:24.593Z,98911.25
2023-03-28T21:38:51.444Z,98924.78
2023-03-28T21:41:17.918Z,98917.66
2023-03-28T21:43:44.612Z,98927.09
2023-03-28T21:46:11.515Z,98927.00
2023-03-28T21:48:38.585Z,98924.00
2023-03-28T21:51:05.800Z,98918.25
2023-03-28T21:53:35.133Z,98921.16
2023-03-28T21:56:01.840Z,98909.09
2023-03-28T21:58:31.854Z,98902.31
2023-03-28T22:00:59.483Z,98916.22
2023-03-28T22:03:27.145Z,98914.81
2023-03-28T22:05:54.575Z,98911.16
2023-03-28T22:08:22.475Z,98908.19
2023-03-28T22:10:52.629Z,98898.03
2023-03-28T22:13:19.949Z,98896.78
2023-03-28T22:15:46.434Z,98889.31
2023-03-28T22:18:13.237Z,98878.84
2023-03-28T22:20:43.436Z,98878.09
2023-03-28T22:23:10.735Z,98866.19
2023-03-28T22:25:38.821Z,98856.91
2023-03-28T22:28:08.277Z,98841.91
2023-03-28T22:30:36.816Z,98828.41
2023-03-28T22:33:04.256Z,98832.88
2023-03-28T22:35:32.198Z,98835.47
2023-03-28T22:37:59.632Z,98830.41
2023-03-28T22:40:26.311Z,98819.88
2023-03-28T22:42:54.093Z,98818.00
2023-03-28T22:45:25.009Z,98822.31
2023-03-28T22:47:51.531Z,98803.53
2023-03-28T22:50:19.349Z,98796.66
2023-03-28T22:52:50.269Z,98794.38
2023-03-28T22:55:17.271Z,98786.78
2023-03-28T22:57:44.774Z,98787.44
2023-03-28T23:00:13.512Z,98780.72
2023-03-28T23:02:40.464Z,98785.59
2023-03-28T23:05:08.132Z,98777.50
2023-03-28T23:07:35.882Z,98778.44
2023-03-28T23:10:08.436Z,98775.19
2023-03-28T23:12:35.336Z,98779.47
2023-03-28T23:15:01.772Z,98768.75
2023-03-28T23:17:28.450Z,98781.66
2023-03-28T23:19:55.023Z,98767.94
2023-03-28T23:22:22.385Z,98770.03
2023-03-28T23:24:51.934Z,98765.31
2023-03-28T23:27:19.650Z,98756.53
2023-03-28T23:29:46.613Z,98749.72
2023-03-28T23:32:13.124Z,98755.66
2023-03-28T23:34:40.209Z,98745.84
2023-03-28T23:37:07.091Z,98748.16
2023-03-28T23:39:33.614Z,98739.97
2023-03-28T23:42:00.124Z,98735.00
2023-03-28T23:44:27.755Z,98742.66
2023-03-28T23:46:56.171Z,98738.94
2023-03-28T23:49:22.642Z,98735.91
2023-03-28T23:51:49.240Z,98732.00
2023-03-28T23:54:18.525Z,98726.25
2023-03-28T23:56:45.711Z,98732.47
2023-03-28T23:59:12.315Z,98734.63
